Time;durP1;ratioP1;P1;durP2;ratioP2;P2;SDS_P1;SDS_P2;PMS_P1;PMS_P2;Temp;Humidity;BMP_temperature;BMP_pressure;BME280_temperature;BME280_humidity;BME280_pressure;Samples;Min_cycle;Max_cycle;Signal;HPM_P1;HPM_P2
2023/01/03 00:02:05;;;;;;;1.90;0.65;;;;;;;;;;5011779;28;20522;-64
2023/01/03 00:04:34;;;;;;;3.33;0.77;;;;;;;;;;5011758;28;20054;-63
2023/01/03 00:07:05;;;;;;;2.70;0.73;;;;;;;;;;5011499;28;20057;-64
2023/01/03 00:09:34;;;;;;;8.57;0.80;;;;;;;;;;5011368;28;20506;-64
2023/01/03 00:12:23;;;;;;;7.95;0.60;;;;;;;;;;5011709;28;20061;-64
2023/01/03 00:14:59;;;;;;;4.68;1.05;;;;;;;;;;5024377;28;20410;-64
2023/01/03 00:17:28;;;;;;;6.45;0.93;;;;;;;;;;4953805;28;20058;-64
2023/01/03 00:19:58;;;;;;;2.28;0.63;;;;;;;;;;5011238;28;20193;-64
2023/01/03 00:22:31;;;;;;;3.40;0.63;;;;;;;;;;5011198;28;20057;-65
2023/01/03 00:25:01;;;;;;;2.85;0.95;;;;;;;;;;4978389;28;21133;-64
2023/01/03 00:27:30;;;;;;;3.80;0.90;;;;;;;;;;5024363;28;20048;-63
2023/01/03 00:30:00;;;;;;;4.28;1.35;;;;;;;;;;5070916;28;20055;-64
2023/01/03 00:32:29;;;;;;;1.50;0.80;;;;;;;;;;5070714;28;20048;-63
2023/01/03 00:34:59;;;;;;;8.18;1.20;;;;;;;;;;5070712;28;20048;-64
2023/01/03 00:37:33;;;;;;;1.50;0.60;;;;;;;;;;5037235;28;20518;-64
2023/01/03 00:40:03;;;;;;;3.03;0.80;;;;;;;;;;5020967;28;20164;-64
2023/01/03 00:43:27;;;;;;;2.22;0.60;;;;;;;;;;5036970;28;20072;-64
2023/01/03 00:45:22;;;;;;;4.00;0.80;;;;;;;;;;5070152;28;20040;-63
2023/01/03 00:47:54;;;;;;;1.98;0.60;;;;;;;;;;5070490;28;20049;-63
2023/01/03 00:50:23;;;;;;;3.33;1.02;;;;;;;;;;5070377;28;20052;-64
2023/01/03 00:52:53;;;;;;;4.32;1.10;;;;;;;;;;5053918;28;20064;-64
2023/01/03 00:55:22;;;;;;;1.77;0.68;;;;;;;;;;5070461;28;20110;-63
2023/01/03 00:57:52;;;;;;;4.82;0.80;;;;;;;;;;5070241;28;20044;-64
2023/01/03 01:00:21;;;;;;;1.75;0.75;;;;;;;;;;5037202;28;20067;-64
2023/01/03 01:02:54;;;;;;;2.38;0.70;;;;;;;;;;5033943;28;20044;-64
2023/01/03 01:05:24;;;;;;;6.60;0.90;;;;;;;;;;5017323;28;20053;-63
2023/01/03 01:07:54;;;;;;;4.28;1.00;;;;;;;;;;5050167;28;20049;-63
2023/01/03 01:10:24;;;;;;;1.70;0.80;;;;;;;;;;5050420;28;20053;-64
2023/01/03 01:12:56;;;;;;;4.25;1.23;;;;;;;;;;5016775;28;20061;-64
2023/01/03 01:15:27;;;;;;;4.40;0.80;;;;;;;;;;5033091;28;20053;-64
2023/01/03 01:17:57;;;;;;;3.53;0.90;;;;;;;;;;5016748;28;20057;-64
2023/01/03 01:20:26;;;;;;;1.52;0.70;;;;;;;;;;5050010;28;20057;-63
2023/01/03 01:22:55;;;;;;;3.75;0.85;;;;;;;;;;5000448;28;20057;-63
2023/01/03 01:25:25;;;;;;;2.65;0.80;;;;;;;;;;5049830;28;20057;-63
2023/01/03 01:27:55;;;;;;;2.90;1.00;;;;;;;;;;5049997;28;20088;-64
2023/01/03 01:30:24;;;;;;;2.63;1.40;;;;;;;;;;5049731;28;20493;-64
2023/01/03 01:32:53;;;;;;;2.85;0.80;;;;;;;;;;5016782;28;20053;-64
2023/01/03 01:35:23;;;;;;;2.63;0.98;;;;;;;;;;5049632;28;20060;-64
2023/01/03 01:37:52;;;;;;;6.00;1.35;;;;;;;;;;5049456;28;20041;-63
2023/01/03 01:40:24;;;;;;;2.45;0.93;;;;;;;;;;5016346;28;20132;-64
2023/01/03 01:45:44;;;;;;;4.53;1.10;;;;;;;;;;5051987;28;20390;-63
2023/01/03 01:48:15;;;;;;;6.07;0.90;;;;;;;;;;5032569;28;20056;-64
2023/01/03 01:50:50;;;;;;;4.20;1.05;;;;;;;;;;5032968;28;20385;-63
2023/01/03 01:53:32;;;;;;;4.30;1.27;;;;;;;;;;5051452;28;20057;-63
2023/01/03 01:56:19;;;;;;;3.35;1.23;;;;;;;;;;5049156;28;20060;-64
2023/01/03 01:58:51;;;;;;;2.65;1.15;;;;;;;;;;5083102;28;20060;-63
2023/01/03 02:01:23;;;;;;;4.40;1.30;;;;;;;;;;5051818;28;20052;-64
2023/01/03 02:04:00;;;;;;;2.83;1.10;;;;;;;;;;5049274;28;20049;-64
2023/01/03 02:06:31;;;;;;;4.78;1.15;;;;;;;;;;5049241;28;20056;-64
2023/01/03 02:09:01;;;;;;;2.20;0.82;;;;;;;;;;5049062;28;20064;-64
2023/01/03 02:15:22;;;;;;;2.85;1.20;;;;;;;;;;5045753;28;20069;-63
2023/01/03 02:18:09;;;;;;;2.67;1.60;;;;;;;;;;5029232;28;20429;-64
2023/01/03 02:21:03;;;;;;;2.33;1.30;;;;;;;;;;4963422;28;20065;-64
2023/01/03 02:24:20;;;;;;;7.20;1.95;;;;;;;;;;5029044;28;20058;-64
2023/01/03 02:26:52;;;;;;;2.42;1.55;;;;;;;;;;4970087;28;20055;-64
2023/01/03 02:29:48;;;;;;;2.90;1.50;;;;;;;;;;4970369;28;20059;-63
2023/01/03 02:32:40;;;;;;;5.82;3.05;;;;;;;;;;4862619;29;20425;-65
2023/01/03 02:35:18;;;;;;;6.75;2.80;;;;;;;;;;4879895;29;20071;-65
2023/01/03 02:37:56;;;;;;;6.15;2.28;;;;;;;;;;4893960;29;20505;-65
2023/01/03 02:40:25;;;;;;;;;;;;;;;;;;4910927;29;20068;-65
2023/01/03 02:43:04;;;;;;;7.82;1.70;;;;;;;;;;4928392;29;20371;-65
2023/01/03 02:45:47;;;;;;;5.75;1.50;;;;;;;;;;4912842;29;20651;-65
2023/01/03 02:48:50;;;;;;;3.50;1.60;;;;;;;;;;4884068;29;20064;-65
2023/01/03 02:51:25;;;;;;;8.20;1.63;;;;;;;;;;4931543;29;20056;-65
2023/01/03 02:53:55;;;;;;;5.40;1.88;;;;;;;;;;4931793;29;20051;-65
2023/01/03 02:56:34;;;;;;;7.18;1.98;;;;;;;;;;4884401;29;20067;-65
2023/01/03 02:59:10;;;;;;;5.07;1.90;;;;;;;;;;4931666;29;20102;-65
2023/01/03 03:01:44;;;;;;;5.05;2.00;;;;;;;;;;4915381;29;20550;-65
2023/01/03 03:04:15;;;;;;;5.65;1.80;;;;;;;;;;4969183;28;20050;-65
2023/01/03 03:07:06;;;;;;;6.68;1.90;;;;;;;;;;4986534;28;20062;-65
2023/01/03 03:13:12;;;;;;;2.88;1.50;;;;;;;;;;5008283;28;20048;-64
2023/01/03 03:15:18;;;;;;;;;;;;;;;;;;5052812;28;20172;-64
2023/01/03 03:17:51;;;;;;;2.83;1.42;;;;;;;;;;5018868;28;20324;-65
2023/01/03 03:26:17;;;;;;;4.00;1.70;;;;;;;;;;5052092;28;20053;-64
2023/01/03 03:28:52;;;;;;;3.28;1.52;;;;;;;;;;5052082;28;20508;-65
2023/01/03 03:31:32;;;;;;;6.90;1.35;;;;;;;;;;5051945;28;20045;-64
2023/01/03 03:34:18;;;;;;;3.85;1.35;;;;;;;;;;5052151;28;20052;-65
2023/01/03 03:37:01;;;;;;;3.63;1.48;;;;;;;;;;5051910;28;20091;-65
2023/01/03 03:45:35;;;;;;;4.43;1.35;;;;;;;;;;5012209;28;19928;-64
2023/01/03 03:48:13;;;;;;;5.07;1.70;;;;;;;;;;5011889;28;20057;-64
2023/01/03 03:51:06;;;;;;;3.58;1.77;;;;;;;;;;4991675;28;20391;-64
2023/01/03 03:53:39;;;;;;;5.93;1.98;;;;;;;;;;4992902;28;20530;-65
2023/01/03 03:56:16;;;;;;;;;;;;;;;;;;4992419;28;20050;-65
2023/01/03 03:58:51;;;;;;;3.35;1.15;;;;;;;;;;4992094;28;19921;-64
2023/01/03 04:01:22;;;;;;;4.35;1.25;;;;;;;;;;4975216;28;20514;-64
2023/01/03 04:03:56;;;;;;;3.38;1.80;;;;;;;;;;4976447;28;20057;-65
2023/01/03 04:06:41;;;;;;;7.65;1.52;;;;;;;;;;4975465;28;20054;-65
2023/01/03 04:09:11;;;;;;;3.15;1.42;;;;;;;;;;4992028;28;20062;-65
2023/01/03 04:11:41;;;;;;;4.00;1.35;;;;;;;;;;4975698;28;20054;-65
2023/01/03 04:14:11;;;;;;;5.53;1.38;;;;;;;;;;4992129;28;20054;-65
2023/01/03 04:16:40;;;;;;;6.07;1.42;;;;;;;;;;4991761;28;20147;-64
2023/01/03 04:19:10;;;;;;;4.00;1.20;;;;;;;;;;5007895;28;20065;-65
2023/01/03 04:21:39;;;;;;;2.95;1.63;;;;;;;;;;5017792;28;20390;-64
2023/01/03 04:24:09;;;;;;;2.60;1.10;;;;;;;;;;5051206;28;20049;-64
2023/01/03 04:26:38;;;;;;;4.50;1.30;;;;;;;;;;5050971;28;20618;-64
2023/01/03 04:29:08;;;;;;;9.32;1.30;;;;;;;;;;5052979;28;20523;-64
2023/01/03 04:31:37;;;;;;;4.35;1.50;;;;;;;;;;5053262;28;20045;-64
2023/01/03 04:34:07;;;;;;;3.83;1.10;;;;;;;;;;5018550;28;20060;-64
2023/01/03 04:36:36;;;;;;;3.83;1.20;;;;;;;;;;5053016;28;20068;-64
2023/01/03 04:39:06;;;;;;;3.92;1.30;;;;;;;;;;5051372;28;20485;-64
2023/01/03 04:41:35;;;;;;;4.80;1.20;;;;;;;;;;5053241;28;20048;-65
2023/01/03 04:44:04;;;;;;;2.35;1.30;;;;;;;;;;5051947;28;20060;-64
2023/01/03 04:46:37;;;;;;;3.45;1.27;;;;;;;;;;5034711;28;20049;-65
2023/01/03 04:49:09;;;;;;;2.88;1.02;;;;;;;;;;5052951;28;20447;-65
2023/01/03 04:51:40;;;;;;;3.03;1.40;;;;;;;;;;5050360;28;20053;-64
2023/01/03 04:54:09;;;;;;;6.03;1.42;;;;;;;;;;5067176;28;20057;-65
2023/01/03 04:56:39;;;;;;;5.22;1.23;;;;;;;;;;5052951;28;20041;-65
2023/01/03 04:59:08;;;;;;;4.68;1.25;;;;;;;;;;5070236;28;20056;-65
2023/01/03 05:01:38;;;;;;;5.60;1.20;;;;;;;;;;5070277;28;20075;-64
2023/01/03 05:04:08;;;;;;;4.72;1.10;;;;;;;;;;5036709;28;20075;-65
2023/01/03 05:06:38;;;;;;;2.20;1.10;;;;;;;;;;5070047;28;20056;-64
2023/01/03 05:09:07;;;;;;;2.60;0.85;;;;;;;;;;5070082;28;20052;-64
2023/01/03 05:11:37;;;;;;;6.72;1.35;;;;;;;;;;5070065;28;20421;-65
2023/01/03 05:14:08;;;;;;;1.83;1.05;;;;;;;;;;5070131;28;20053;-66
2023/01/03 05:16:42;;;;;;;3.95;1.42;;;;;;;;;;5020113;28;20401;-64
2023/01/03 05:19:13;;;;;;;6.97;1.20;;;;;;;;;;5069715;28;20048;-65
2023/01/03 05:27:19;;;;;;;5.22;1.42;;;;;;;;;;5069580;28;20048;-65
2023/01/03 05:29:51;;;;;;;4.88;1.83;;;;;;;;;;5069284;28;20063;-65
2023/01/03 05:32:22;;;;;;;7.40;1.33;;;;;;;;;;5036267;28;20068;-64
2023/01/03 05:34:52;;;;;;;3.83;1.25;;;;;;;;;;5069802;28;20068;-65
2023/01/03 05:37:23;;;;;;;3.75;1.30;;;;;;;;;;5055878;28;20057;-65
2023/01/03 05:39:53;;;;;;;4.63;1.73;;;;;;;;;;5050097;28;20377;-65
2023/01/03 05:42:22;;;;;;;2.78;1.38;;;;;;;;;;5050277;28;20052;-65
2023/01/03 05:44:52;;;;;;;3.90;1.23;;;;;;;;;;5051002;28;20045;-65
2023/01/03 05:47:21;;;;;;;2.30;1.10;;;;;;;;;;5051608;28;20051;-65
2023/01/03 05:49:51;;;;;;;4.10;1.30;;;;;;;;;;5036458;28;20056;-65
2023/01/03 05:52:21;;;;;;;3.60;1.30;;;;;;;;;;5071733;28;20048;-65
2023/01/03 05:54:50;;;;;;;3.05;1.17;;;;;;;;;;5020017;28;20500;-65
2023/01/03 05:57:20;;;;;;;3.08;1.48;;;;;;;;;;5071671;28;20516;-65
2023/01/03 05:59:49;;;;;;;3.28;1.40;;;;;;;;;;5071579;28;20396;-64
2023/01/03 06:02:18;;;;;;;7.15;1.80;;;;;;;;;;5053079;28;20056;-65
2023/01/03 06:04:48;;;;;;;2.28;1.25;;;;;;;;;;5071639;28;20040;-65
2023/01/03 06:07:18;;;;;;;5.07;1.60;;;;;;;;;;5053068;28;20056;-65
2023/01/03 06:09:47;;;;;;;5.63;1.50;;;;;;;;;;5052730;28;20056;-65
2023/01/03 06:12:16;;;;;;;5.30;1.60;;;;;;;;;;5020204;28;20052;-65
2023/01/03 06:14:46;;;;;;;5.88;1.73;;;;;;;;;;5019353;28;20493;-65
2023/01/03 06:20:04;;;;;;;7.35;1.90;;;;;;;;;;5071767;28;20036;-65
2023/01/03 06:22:34;;;;;;;5.63;1.40;;;;;;;;;;5071531;28;20492;-65
2023/01/03 06:25:04;;;;;;;7.47;1.77;;;;;;;;;;5071720;28;20048;-65
2023/01/03 06:27:34;;;;;;;6.38;1.83;;;;;;;;;;5036928;28;20049;-65
2023/01/03 06:30:03;;;;;;;3.35;1.38;;;;;;;;;;5071187;28;20049;-65
2023/01/03 06:32:34;;;;;;;3.67;1.42;;;;;;;;;;5036152;28;20045;-65
2023/01/03 06:35:04;;;;;;;3.38;1.50;;;;;;;;;;5036022;28;20056;-65
2023/01/03 06:37:33;;;;;;;3.20;1.58;;;;;;;;;;5053828;28;20051;-65
2023/01/03 06:40:04;;;;;;;4.60;1.75;;;;;;;;;;5019626;28;20056;-65
2023/01/03 06:42:52;;;;;;;6.35;1.30;;;;;;;;;;5075079;28;20404;-65
2023/01/03 06:53:48;;;;;;;4.38;1.40;;;;;;;;;;5056547;28;20060;-65
2023/01/03 06:56:17;;;;;;;5.88;1.40;;;;;;;;;;5023062;28;20484;-65
2023/01/03 06:58:47;;;;;;;4.20;1.35;;;;;;;;;;5024113;28;20064;-64
2023/01/03 07:01:17;;;;;;;9.98;1.63;;;;;;;;;;5057928;28;20080;-64
2023/01/03 07:03:47;;;;;;;5.60;1.23;;;;;;;;;;5057580;28;20055;-65
2023/01/03 07:06:17;;;;;;;2.88;1.42;;;;;;;;;;5075279;28;20044;-65
2023/01/03 07:08:46;;;;;;;7.32;1.77;;;;;;;;;;5012724;28;20061;-64
2023/01/03 07:11:16;;;;;;;7.45;1.80;;;;;;;;;;5012897;28;20418;-64
2023/01/03 07:13:57;;;;;;;5.65;1.45;;;;;;;;;;4980064;28;20054;-65
2023/01/03 07:16:35;;;;;;;3.75;1.65;;;;;;;;;;4980116;28;20668;-64
2023/01/03 07:19:06;;;;;;;4.95;1.65;;;;;;;;;;4980250;28;20061;-64
2023/01/03 07:21:36;;;;;;;5.68;1.65;;;;;;;;;;5012391;28;20073;-65
2023/01/03 07:24:07;;;;;;;5.90;1.80;;;;;;;;;;4995674;28;20441;-65
2023/01/03 07:26:37;;;;;;;5.90;1.42;;;;;;;;;;5012416;28;20097;-65
2023/01/03 07:29:08;;;;;;;6.88;1.60;;;;;;;;;;5012762;28;20493;-65
2023/01/03 07:31:39;;;;;;;2.33;1.25;;;;;;;;;;5012429;28;20054;-65
2023/01/03 07:34:09;;;;;;;6.93;1.40;;;;;;;;;;4995800;28;20057;-65
2023/01/03 07:36:39;;;;;;;3.22;1.27;;;;;;;;;;5012340;28;20057;-65
2023/01/03 07:39:08;;;;;;;4.13;1.38;;;;;;;;;;5012558;28;20054;-65
2023/01/03 07:44:26;;;;;;;4.50;1.60;;;;;;;;;;4902742;29;20048;-65
2023/01/03 07:46:55;;;;;;;5.72;1.60;;;;;;;;;;4945804;28;20055;-65
2023/01/03 07:49:25;;;;;;;6.93;1.42;;;;;;;;;;4972757;28;20058;-65
2023/01/03 07:51:54;;;;;;;8.27;1.60;;;;;;;;;;4940432;28;20051;-65
2023/01/03 07:54:24;;;;;;;4.82;1.85;;;;;;;;;;4972068;28;20055;-65
2023/01/03 07:56:53;;;;;;;3.80;1.70;;;;;;;;;;4972956;28;20063;-65
2023/01/03 07:59:22;;;;;;;2.42;1.40;;;;;;;;;;4894109;28;20531;-65
2023/01/03 08:01:52;;;;;;;5.35;1.90;;;;;;;;;;4951598;28;20165;-65
2023/01/03 08:04:22;;;;;;;6.32;1.50;;;;;;;;;;4886994;29;20063;-65
2023/01/03 08:06:51;;;;;;;4.60;1.60;;;;;;;;;;4933968;28;20066;-65
2023/01/03 08:14:58;;;;;;;5.68;1.45;;;;;;;;;;4907048;28;20051;-65
2023/01/03 08:17:27;;;;;;;5.20;1.55;;;;;;;;;;4915023;29;20063;-65
2023/01/03 08:19:57;;;;;;;2.83;1.35;;;;;;;;;;4920527;29;20051;-65
2023/01/03 08:22:28;;;;;;;6.10;1.38;;;;;;;;;;4933970;29;20067;-65
2023/01/03 08:24:57;;;;;;;6.82;1.92;;;;;;;;;;4871189;29;20082;-65
2023/01/03 08:27:27;;;;;;;2.83;1.80;;;;;;;;;;4946370;29;20067;-65
2023/01/03 08:29:56;;;;;;;5.75;1.77;;;;;;;;;;4972319;28;20055;-65
2023/01/03 08:32:26;;;;;;;3.50;2.15;;;;;;;;;;4972181;28;20101;-65
2023/01/03 08:34:57;;;;;;;5.22;1.70;;;;;;;;;;4972038;28;20085;-65
2023/01/03 08:37:27;;;;;;;2.88;1.50;;;;;;;;;;4923769;28;20058;-64
2023/01/03 08:40:01;;;;;;;7.15;1.65;;;;;;;;;;4924033;28;20437;-65
2023/01/03 08:42:33;;;;;;;4.72;1.40;;;;;;;;;;4955653;28;20412;-64
2023/01/03 08:45:08;;;;;;;5.88;1.83;;;;;;;;;;4940672;28;20069;-64
2023/01/03 08:47:37;;;;;;;7.95;2.08;;;;;;;;;;4975134;28;22147;-64
2023/01/03 08:50:08;;;;;;;4.60;1.65;;;;;;;;;;5014363;28;20065;-64
2023/01/03 08:52:38;;;;;;;9.38;1.65;;;;;;;;;;5000868;28;20068;-66
2023/01/03 08:55:08;;;;;;;3.97;1.50;;;;;;;;;;5050637;28;20060;-63
2023/01/03 08:57:39;;;;;;;5.47;1.42;;;;;;;;;;5050460;28;20053;-64
2023/01/03 09:00:09;;;;;;;5.95;1.40;;;;;;;;;;5050676;28;20065;-64
2023/01/03 09:02:39;;;;;;;5.65;2.20;;;;;;;;;;5000936;28;20057;-64
2023/01/03 09:05:09;;;;;;;6.25;1.50;;;;;;;;;;5052066;28;20057;-65
2023/01/03 09:07:38;;;;;;;8.77;1.73;;;;;;;;;;5054466;28;20064;-65
2023/01/03 09:10:08;;;;;;;6.25;1.67;;;;;;;;;;5072510;28;20045;-64
2023/01/03 09:12:38;;;;;;;4.78;1.30;;;;;;;;;;5072468;28;20052;-64
2023/01/03 09:15:07;;;;;;;7.25;2.03;;;;;;;;;;5072597;28;20404;-64
2023/01/03 09:17:40;;;;;;;6.97;1.65;;;;;;;;;;5072439;28;20048;-64
2023/01/03 09:20:15;;;;;;;4.13;1.50;;;;;;;;;;5072463;28;20048;-64
2023/01/03 09:22:46;;;;;;;5.15;1.42;;;;;;;;;;5036754;28;20052;-63
2023/01/03 09:25:16;;;;;;;5.22;1.75;;;;;;;;;;5072347;28;20067;-60
2023/01/03 09:27:47;;;;;;;4.28;1.60;;;;;;;;;;5072073;28;20408;-62
2023/01/03 09:30:17;;;;;;;7.10;1.95;;;;;;;;;;5072257;28;20056;-63
2023/01/03 09:32:49;;;;;;;6.28;1.77;;;;;;;;;;5086705;28;20053;-63
2023/01/03 09:35:19;;;;;;;3.33;1.95;;;;;;;;;;5020594;28;20056;-61
2023/01/03 09:37:49;;;;;;;5.72;1.80;;;;;;;;;;5072042;28;20041;-64
2023/01/03 09:40:19;;;;;;;6.07;1.77;;;;;;;;;;5037370;28;20504;-62
2023/01/03 09:45:48;;;;;;;6.10;1.83;;;;;;;;;;5053330;28;20083;-62
2023/01/03 09:48:34;;;;;;;4.85;2.70;;;;;;;;;;5072205;28;20349;-62
2023/01/03 10:03:42;;;;;;;5.10;2.03;;;;;;;;;;5019682;28;20049;-62
2023/01/03 10:06:04;;;;;;;8.65;2.10;;;;;;;;;;5025858;28;20064;-65
2023/01/03 10:08:50;;;;;;;6.18;1.90;;;;;;;;;;5009404;28;20050;-62
2023/01/03 10:11:23;;;;;;;5.63;2.00;;;;;;;;;;5025770;28;20053;-62
2023/01/03 10:14:22;;;;;;;3.42;1.73;;;;;;;;;;5009416;28;20049;-63
2023/01/03 10:17:45;;;;;;;4.82;2.05;;;;;;;;;;5008862;28;20050;-63
2023/01/03 10:20:24;;;;;;;4.07;1.60;;;;;;;;;;4970263;28;20051;-62
2023/01/03 10:23:01;;;;;;;8.45;1.70;;;;;;;;;;4970582;28;20059;-63
2023/01/03 10:25:30;;;;;;;5.90;1.85;;;;;;;;;;4970162;28;20074;-62
2023/01/03 10:28:24;;;;;;;4.45;2.10;;;;;;;;;;4980496;28;20408;-63
2023/01/03 10:30:56;;;;;;;2.97;1.42;;;;;;;;;;4989640;28;20058;-62
2023/01/03 10:33:41;;;;;;;4.07;1.35;;;;;;;;;;5000984;28;20485;-62
2023/01/03 10:36:11;;;;;;;4.03;1.33;;;;;;;;;;5008841;28;20049;-63
2023/01/03 10:38:43;;;;;;;7.22;1.23;;;;;;;;;;4984626;28;20054;-62
2023/01/03 10:41:31;;;;;;;4.40;1.20;;;;;;;;;;5009034;28;20061;-63
2023/01/03 10:44:03;;;;;;;2.45;1.13;;;;;;;;;;5009113;28;20105;-63
2023/01/03 10:46:32;;;;;;;;;;;;;;;;;;4993689;28;20050;-62
2023/01/03 10:49:19;;;;;;;3.63;1.30;;;;;;;;;;5009048;28;19922;-62
2023/01/03 10:52:01;;;;;;;2.53;1.08;;;;;;;;;;4974098;28;20909;-62
2023/01/03 10:54:35;;;;;;;2.60;1.10;;;;;;;;;;5028882;28;20058;-62
2023/01/03 10:57:06;;;;;;;1.90;0.90;;;;;;;;;;5028473;28;20049;-62
2023/01/03 10:59:36;;;;;;;5.18;0.90;;;;;;;;;;5028946;28;20049;-62
2023/01/03 11:02:11;;;;;;;1.17;0.70;;;;;;;;;;4995497;28;20056;-62
2023/01/03 11:04:43;;;;;;;2.05;0.60;;;;;;;;;;5028689;28;20540;-62
2023/01/03 11:07:15;;;;;;;2.72;0.57;;;;;;;;;;5028499;28;20042;-63
2023/01/03 11:09:56;;;;;;;3.13;0.60;;;;;;;;;;5028556;28;20065;-62
2023/01/03 11:12:37;;;;;;;1.10;0.70;;;;;;;;;;5028674;28;20048;-63
2023/01/03 11:15:18;;;;;;;5.82;1.02;;;;;;;;;;5012508;28;20061;-62
2023/01/03 11:17:59;;;;;;;2.15;0.70;;;;;;;;;;5028744;28;20053;-64
2023/01/03 11:20:40;;;;;;;1.00;0.55;;;;;;;;;;5028618;28;20540;-63
2023/01/03 11:23:43;;;;;;;1.65;0.77;;;;;;;;;;5012524;28;20124;-64
2023/01/03 11:26:32;;;;;;;1.27;0.77;;;;;;;;;;4979482;28;20061;-64
2023/01/03 11:29:11;;;;;;;2.55;0.70;;;;;;;;;;5042224;28;20059;-63
2023/01/03 11:32:03;;;;;;;1.30;0.55;;;;;;;;;;5074390;28;20404;-64
2023/01/03 11:34:42;;;;;;;2.20;0.80;;;;;;;;;;5074270;28;20071;-63
2023/01/03 11:37:59;;;;;;;1.98;0.65;;;;;;;;;;5074134;28;20049;-63
2023/01/03 11:40:29;;;;;;;;;;;;;;;;;;5022786;28;20053;-63
2023/01/03 11:43:23;;;;;;;2.30;0.70;;;;;;;;;;5074292;28;19921;-63
2023/01/03 11:46:31;;;;;;;3.08;1.00;;;;;;;;;;5073931;28;20041;-63
2023/01/03 11:49:16;;;;;;;0.95;0.60;;;;;;;;;;5038518;28;20061;-64
2023/01/03 11:51:51;;;;;;;1.60;0.68;;;;;;;;;;5073801;28;20056;-63
2023/01/03 11:54:59;;;;;;;0.85;0.75;;;;;;;;;;5073889;28;20079;-63
2023/01/03 11:57:39;;;;;;;1.73;0.70;;;;;;;;;;5031594;28;20788;-63
2023/01/03 12:00:26;;;;;;;1.88;0.82;;;;;;;;;;4982632;28;20050;-63
2023/01/03 12:03:21;;;;;;;2.33;0.60;;;;;;;;;;4982745;28;20064;-63
2023/01/03 12:05:58;;;;;;;1.23;0.52;;;;;;;;;;5015419;28;20057;-63
2023/01/03 12:08:59;;;;;;;0.88;0.73;;;;;;;;;;5031714;28;20509;-61
2023/01/03 12:11:36;;;;;;;1.77;0.70;;;;;;;;;;4998233;28;20045;-62
2023/01/03 12:14:13;;;;;;;2.63;0.82;;;;;;;;;;4998626;28;20053;-63
2023/01/03 12:16:56;;;;;;;1.75;0.80;;;;;;;;;;5031204;28;20084;-63
2023/01/03 12:19:36;;;;;;;2.00;0.70;;;;;;;;;;5031001;28;21094;-64
2023/01/03 12:22:26;;;;;;;2.38;1.00;;;;;;;;;;5031281;28;20049;-63
2023/01/03 12:25:07;;;;;;;1.85;0.80;;;;;;;;;;4982210;28;20062;-63
2023/01/03 12:27:45;;;;;;;2.90;0.90;;;;;;;;;;5031365;28;20066;-63
2023/01/03 12:30:35;;;;;;;3.15;0.90;;;;;;;;;;4998544;28;20062;-63
2023/01/03 12:33:13;;;;;;;1.20;0.65;;;;;;;;;;5005868;28;20611;-62
2023/01/03 12:35:48;;;;;;;3.40;0.70;;;;;;;;;;5021957;28;20523;-63
2023/01/03 12:38:24;;;;;;;3.30;0.60;;;;;;;;;;5073498;28;20515;-63
2023/01/03 12:41:17;;;;;;;1.25;0.60;;;;;;;;;;5031030;28;20053;-62
2023/01/03 12:43:52;;;;;;;1.05;0.50;;;;;;;;;;4975382;28;20449;-62
2023/01/03 12:46:29;;;;;;;2.40;0.60;;;;;;;;;;4991748;28;20054;-63
2023/01/03 12:49:06;;;;;;;1.50;0.50;;;;;;;;;;4974980;28;20413;-62
2023/01/03 12:51:36;;;;;;;1.08;0.60;;;;;;;;;;4959136;28;20081;-63
2023/01/03 12:54:25;;;;;;;2.00;0.70;;;;;;;;;;4959355;28;20054;-63
2023/01/03 12:57:23;;;;;;;2.00;1.38;;;;;;;;;;4991164;28;20079;-62
2023/01/03 13:00:31;;;;;;;2.15;0.70;;;;;;;;;;4991352;28;20046;-62
2023/01/03 13:03:23;;;;;;;1.70;0.60;;;;;;;;;;4933354;29;20055;-63
2023/01/03 13:06:02;;;;;;;0.73;0.60;;;;;;;;;;4933649;29;20559;-62
2023/01/03 13:08:34;;;;;;;0.98;0.70;;;;;;;;;;4917173;29;20051;-62
2023/01/03 13:11:17;;;;;;;1.08;0.70;;;;;;;;;;4935238;29;20051;-63
2023/01/03 13:13:59;;;;;;;2.88;0.50;;;;;;;;;;4952509;28;20059;-62
2023/01/03 13:16:38;;;;;;;1.02;0.65;;;;;;;;;;4952462;28;20046;-63
2023/01/03 13:19:22;;;;;;;1.55;0.60;;;;;;;;;;4936211;29;20122;-62
2023/01/03 13:21:53;;;;;;;2.08;0.70;;;;;;;;;;4968778;28;20167;-62
2023/01/03 13:24:42;;;;;;;2.30;0.70;;;;;;;;;;4971664;28;20050;-62
2023/01/03 13:27:19;;;;;;;2.15;0.90;;;;;;;;;;4938956;28;20410;-62
2023/01/03 13:29:48;;;;;;;6.68;3.63;;;;;;;;;;4971428;28;20543;-62
2023/01/03 13:32:21;;;;;;;2.70;1.45;;;;;;;;;;4971620;28;20399;-62
2023/01/03 13:34:57;;;;;;;2.40;0.95;;;;;;;;;;4971295;28;20051;-62
2023/01/03 13:37:28;;;;;;;2.78;1.70;;;;;;;;;;4971284;28;20061;-62
2023/01/03 13:40:21;;;;;;;1.25;0.68;;;;;;;;;;5022125;28;20060;-62
2023/01/03 13:43:15;;;;;;;3.35;1.20;;;;;;;;;;5030106;28;20057;-62
2023/01/03 13:45:46;;;;;;;1.08;0.80;;;;;;;;;;5029865;28;20453;-62
2023/01/03 13:48:28;;;;;;;1.23;0.70;;;;;;;;;;5029878;28;20433;-63
2023/01/03 13:51:16;;;;;;;1.05;0.70;;;;;;;;;;5028980;28;20061;-63
2023/01/03 13:53:56;;;;;;;0.77;0.75;;;;;;;;;;5029926;28;20061;-63
2023/01/03 13:56:51;;;;;;;0.82;0.60;;;;;;;;;;4990511;28;20089;-60
2023/01/03 13:59:29;;;;;;;1.92;1.08;;;;;;;;;;4990192;28;20050;-63
2023/01/03 14:02:20;;;;;;;6.63;3.90;;;;;;;;;;4942085;28;20058;-63
2023/01/03 14:05:04;;;;;;;4.15;1.20;;;;;;;;;;4942316;28;20136;-63
2023/01/03 14:07:57;;;;;;;1.27;0.80;;;;;;;;;;4942045;28;20065;-63
2023/01/03 14:10:54;;;;;;;0.85;0.70;;;;;;;;;;4958117;28;20163;-63
2023/01/03 14:13:26;;;;;;;1.08;0.80;;;;;;;;;;4990074;28;20474;-63
2023/01/03 14:16:48;;;;;;;2.95;1.10;;;;;;;;;;4990182;28;20066;-63
2023/01/03 14:19:23;;;;;;;1.58;0.82;;;;;;;;;;4932387;29;20452;-63
2023/01/03 14:22:00;;;;;;;1.50;1.05;;;;;;;;;;4948106;29;20385;-63
2023/01/03 14:24:55;;;;;;;2.00;1.00;;;;;;;;;;4932391;29;20067;-63
2023/01/03 14:27:36;;;;;;;1.90;0.90;;;;;;;;;;4964430;28;20051;-63
2023/01/03 14:30:21;;;;;;;2.08;0.90;;;;;;;;;;4970453;28;20078;-64
2023/01/03 14:32:51;;;;;;;2.45;0.90;;;;;;;;;;4970718;28;20055;-61
2023/01/03 14:35:37;;;;;;;2.22;0.82;;;;;;;;;;4970439;28;20073;-61
2023/01/03 14:38:22;;;;;;;2.38;0.80;;;;;;;;;;4970459;28;20051;-61
2023/01/03 14:40:54;;;;;;;2.92;0.73;;;;;;;;;;4938238;28;20054;-61
2023/01/03 14:43:29;;;;;;;1.20;0.80;;;;;;;;;;4937830;28;20047;-60
2023/01/03 14:46:10;;;;;;;1.25;0.65;;;;;;;;;;4938153;28;20070;-62
2023/01/03 14:48:45;;;;;;;3.40;1.00;;;;;;;;;;4935025;29;20490;-62
2023/01/03 14:51:17;;;;;;;2.17;0.98;;;;;;;;;;4934922;29;20102;-62
2023/01/03 14:53:47;;;;;;;2.20;1.00;;;;;;;;;;4951270;29;20531;-62
2023/01/03 14:56:22;;;;;;;1.08;0.82;;;;;;;;;;5009432;28;20497;-62
2023/01/03 14:58:52;;;;;;;1.42;0.85;;;;;;;;;;4953922;28;20050;-61
2023/01/03 15:01:22;;;;;;;1.65;0.80;;;;;;;;;;4989681;28;20065;-62
2023/01/03 15:03:52;;;;;;;1.17;0.88;;;;;;;;;;4953178;28;20059;-64
2023/01/03 15:06:27;;;;;;;0.85;0.70;;;;;;;;;;4935145;29;20062;-64
2023/01/03 15:09:00;;;;;;;1.90;0.90;;;;;;;;;;4935523;29;20455;-64
2023/01/03 15:11:54;;;;;;;1.48;0.70;;;;;;;;;;4935048;29;20055;-64
2023/01/03 15:14:34;;;;;;;1.67;0.95;;;;;;;;;;4919910;29;20051;-64
2023/01/03 15:17:15;;;;;;;2.85;1.27;;;;;;;;;;4919436;29;20060;-64
2023/01/03 15:19:53;;;;;;;1.88;0.90;;;;;;;;;;4900239;29;20505;-65
2023/01/03 15:22:31;;;;;;;1.17;0.85;;;;;;;;;;4881482;29;20044;-65
2023/01/03 15:25:03;;;;;;;;;;;;;;;;;;4866539;29;20068;-64
2023/01/03 15:27:42;;;;;;;2.10;1.02;;;;;;;;;;4935506;29;19922;-63
2023/01/03 15:30:19;;;;;;;1.65;0.93;;;;;;;;;;4934780;29;20055;-63
2023/01/03 15:33:18;;;;;;;2.47;0.70;;;;;;;;;;4935333;29;20059;-61
2023/01/03 15:35:50;;;;;;;0.82;0.50;;;;;;;;;;4892927;29;20053;-62
2023/01/03 15:38:34;;;;;;;1.48;0.40;;;;;;;;;;4876275;29;20065;-63
2023/01/03 15:44:40;;;;;;;1.10;0.68;;;;;;;;;;4934923;29;20389;-64
2023/01/03 15:47:12;;;;;;;2.92;0.45;;;;;;;;;;4915805;29;20097;-62
2023/01/03 15:49:46;;;;;;;1.27;0.20;;;;;;;;;;4915415;29;20074;-58
2023/01/03 15:52:16;;;;;;;0.82;0.75;;;;;;;;;;4915672;29;20068;-58
2023/01/03 15:54:46;;;;;;;2.75;0.40;;;;;;;;;;4915724;29;20052;-59
2023/01/03 15:57:19;;;;;;;1.75;0.45;;;;;;;;;;4915529;29;20060;-60
2023/01/03 15:59:55;;;;;;;0.93;0.20;;;;;;;;;;4934389;29;20064;-58
2023/01/03 16:02:25;;;;;;;1.23;0.25;;;;;;;;;;4934416;29;20562;-58
2023/01/03 16:04:56;;;;;;;1.58;0.20;;;;;;;;;;4934682;29;20408;-58
2023/01/03 16:07:26;;;;;;;1.65;0.20;;;;;;;;;;4924635;29;20051;-58
2023/01/03 16:09:55;;;;;;;0.43;0.20;;;;;;;;;;4937427;29;20066;-58
2023/01/03 16:12:34;;;;;;;0.55;0.20;;;;;;;;;;4967410;28;20080;-59
2023/01/03 16:15:07;;;;;;;0.85;0.40;;;;;;;;;;4998255;28;20048;-59
2023/01/03 16:17:37;;;;;;;0.28;0.28;;;;;;;;;;4991266;28;20056;-60
2023/01/03 16:20:14;;;;;;;1.75;0.30;;;;;;;;;;5038554;28;20496;-61
2023/01/03 16:22:50;;;;;;;0.50;0.30;;;;;;;;;;5054959;28;20048;-61
2023/01/03 16:25:28;;;;;;;;;;;;;;;;;;5074089;28;20036;-59
2023/01/03 16:27:58;;;;;;;3.75;0.80;;;;;;;;;;5021952;28;20287;-59
2023/01/03 16:30:27;;;;;;;0.63;0.20;;;;;;;;;;5073666;28;20377;-59
2023/01/03 16:32:57;;;;;;;0.98;0.20;;;;;;;;;;5073457;28;20049;-59
2023/01/03 16:35:26;;;;;;;0.75;0.32;;;;;;;;;;5073537;28;20052;-59
2023/01/03 16:37:57;;;;;;;1.95;0.30;;;;;;;;;;5038167;28;20060;-58
2023/01/03 16:40:26;;;;;;;0.43;0.30;;;;;;;;;;5073273;28;20048;-58
2023/01/03 16:42:56;;;;;;;1.13;0.30;;;;;;;;;;5021332;28;20123;-59